sensor_id;sensor_type;location;lat;lon;timestamp;P1;durP1;ratioP1;P2;durP2;ratioP2
43182;SDS011;28802;38.578;-0.066;2022-12-10T00:00:17;7.33;;;3.73;;
43182;SDS011;28802;38.578;-0.066;2022-12-10T00:02:42;9.73;;;6.00;;
43182;SDS011;28802;38.578;-0.066;2022-12-10T00:05:08;6.87;;;4.23;;
43182;SDS011;28802;38.578;-0.066;2022-12-10T00:07:34;7.43;;;4.03;;
43182;SDS011;28802;38.578;-0.066;2022-12-10T00:10:00;6.20;;;3.10;;
43182;SDS011;28802;38.578;-0.066;2022-12-10T00:12:26;8.17;;;4.30;;
43182;SDS011;28802;38.578;-0.066;2022-12-10T00:14:52;4.07;;;2.70;;
43182;SDS011;28802;38.578;-0.066;2022-12-10T00:17:18;9.63;;;3.70;;
43182;SDS011;28802;38.578;-0.066;2022-12-10T00:19:43;5.10;;;2.50;;
43182;SDS011;28802;38.578;-0.066;2022-12-10T00:22:12;11.73;;;3.30;;
43182;SDS011;28802;38.578;-0.066;2022-12-10T00:24:37;5.70;;;3.20;;
43182;SDS011;28802;38.578;-0.066;2022-12-10T00:27:03;4.53;;;2.87;;
43182;SDS011;28802;38.578;-0.066;2022-12-10T00:29:29;4.13;;;2.63;;
43182;SDS011;28802;38.578;-0.066;2022-12-10T00:31:55;7.60;;;3.40;;
43182;SDS011;28802;38.578;-0.066;2022-12-10T00:34:21;4.10;;;2.93;;
43182;SDS011;28802;38.578;-0.066;2022-12-10T00:36:47;6.77;;;3.47;;
43182;SDS011;28802;38.578;-0.066;2022-12-10T00:39:17;6.23;;;3.20;;
43182;SDS011;28802;38.578;-0.066;2022-12-10T00:41:44;8.13;;;3.87;;
43182;SDS011;28802;38.578;-0.066;2022-12-10T00:44:10;5.47;;;3.37;;
43182;SDS011;28802;38.578;-0.066;2022-12-10T00:46:37;7.70;;;3.20;;
43182;SDS011;28802;38.578;-0.066;2022-12-10T00:49:03;14.17;;;4.00;;
43182;SDS011;28802;38.578;-0.066;2022-12-10T00:51:29;7.20;;;4.50;;
43182;SDS011;28802;38.578;-0.066;2022-12-10T00:53:56;7.03;;;4.03;;
43182;SDS011;28802;38.578;-0.066;2022-12-10T00:56:25;5.30;;;3.70;;
43182;SDS011;28802;38.578;-0.066;2022-12-10T00:58:52;5.70;;;3.93;;
43182;SDS011;28802;38.578;-0.066;2022-12-10T01:01:23;6.40;;;3.60;;
43182;SDS011;28802;38.578;-0.066;2022-12-10T01:03:55;4.90;;;3.10;;
43182;SDS011;28802;38.578;-0.066;2022-12-10T01:06:24;9.10;;;3.70;;
43182;SDS011;28802;38.578;-0.066;2022-12-10T01:09:18;5.30;;;2.30;;
43182;SDS011;28802;38.578;-0.066;2022-12-10T01:11:46;5.07;;;2.53;;
43182;SDS011;28802;38.578;-0.066;2022-12-10T01:14:16;5.27;;;2.43;;
43182;SDS011;28802;38.578;-0.066;2022-12-10T01:16:46;1.93;;;1.73;;
43182;SDS011;28802;38.578;-0.066;2022-12-10T01:19:12;4.30;;;1.67;;
43182;SDS011;28802;38.578;-0.066;2022-12-10T01:21:39;2.50;;;1.33;;
43182;SDS011;28802;38.578;-0.066;2022-12-10T01:24:06;2.27;;;1.50;;
43182;SDS011;28802;38.578;-0.066;2022-12-10T01:26:33;1.90;;;1.27;;
43182;SDS011;28802;38.578;-0.066;2022-12-10T01:29:00;4.10;;;2.17;;
43182;SDS011;28802;38.578;-0.066;2022-12-10T01:31:28;1.73;;;1.17;;
43182;SDS011;28802;38.578;-0.066;2022-12-10T01:33:59;2.97;;;1.20;;
43182;SDS011;28802;38.578;-0.066;2022-12-10T01:36:30;2.93;;;1.10;;
43182;SDS011;28802;38.578;-0.066;2022-12-10T01:38:57;1.83;;;1.00;;
43182;SDS011;28802;38.578;-0.066;2022-12-10T01:41:30;12.33;;;0.80;;
43182;SDS011;28802;38.578;-0.066;2022-12-10T01:46:32;2.80;;;0.80;;
43182;SDS011;28802;38.578;-0.066;2022-12-10T01:49:02;3.67;;;1.00;;
43182;SDS011;28802;38.578;-0.066;2022-12-10T01:51:33;3.37;;;0.70;;
43182;SDS011;28802;38.578;-0.066;2022-12-10T01:54:02;5.70;;;1.27;;
43182;SDS011;28802;38.578;-0.066;2022-12-10T01:56:30;1.50;;;0.83;;
43182;SDS011;28802;38.578;-0.066;2022-12-10T01:58:57;7.50;;;1.03;;
43182;SDS011;28802;38.578;-0.066;2022-12-10T02:01:30;3.03;;;1.17;;
43182;SDS011;28802;38.578;-0.066;2022-12-10T02:06:53;5.77;;;1.50;;
43182;SDS011;28802;38.578;-0.066;2022-12-10T02:15:06;4.50;;;1.60;;
43182;SDS011;28802;38.578;-0.066;2022-12-10T02:20:31;5.33;;;1.43;;
43182;SDS011;28802;38.578;-0.066;2022-12-10T02:23:09;6.90;;;1.10;;
43182;SDS011;28802;38.578;-0.066;2022-12-10T02:31:18;2.07;;;0.90;;
43182;SDS011;28802;38.578;-0.066;2022-12-10T02:33:48;2.93;;;0.90;;
43182;SDS011;28802;38.578;-0.066;2022-12-10T02:36:18;5.47;;;1.30;;
43182;SDS011;28802;38.578;-0.066;2022-12-10T02:38:47;7.40;;;1.10;;
43182;SDS011;28802;38.578;-0.066;2022-12-10T02:41:18;1.83;;;0.60;;
43182;SDS011;28802;38.578;-0.066;2022-12-10T02:43:51;1.37;;;0.50;;
43182;SDS011;28802;38.578;-0.066;2022-12-10T02:46:19;1.50;;;0.57;;
43182;SDS011;28802;38.578;-0.066;2022-12-10T02:48:49;1.43;;;0.80;;
43182;SDS011;28802;38.578;-0.066;2022-12-10T02:51:16;0.97;;;0.40;;
43182;SDS011;28802;38.578;-0.066;2022-12-10T02:53:43;1.23;;;0.50;;
43182;SDS011;28802;38.578;-0.066;2022-12-10T02:59:01;0.80;;;0.20;;
43182;SDS011;28802;38.578;-0.066;2022-12-10T03:07:26;4.17;;;0.60;;
43182;SDS011;28802;38.578;-0.066;2022-12-10T03:10:03;1.10;;;0.30;;
43182;SDS011;28802;38.578;-0.066;2022-12-10T03:12:43;1.00;;;0.30;;
43182;SDS011;28802;38.578;-0.066;2022-12-10T03:15:14;1.30;;;0.30;;
43182;SDS011;28802;38.578;-0.066;2022-12-10T03:17:41;1.37;;;0.40;;
43182;SDS011;28802;38.578;-0.066;2022-12-10T03:20:11;2.30;;;0.53;;
43182;SDS011;28802;38.578;-0.066;2022-12-10T03:22:39;4.53;;;0.60;;
43182;SDS011;28802;38.578;-0.066;2022-12-10T03:25:08;1.97;;;0.30;;
43182;SDS011;28802;38.578;-0.066;2022-12-10T03:27:37;2.00;;;0.73;;
43182;SDS011;28802;38.578;-0.066;2022-12-10T03:30:06;4.83;;;0.40;;
43182;SDS011;28802;38.578;-0.066;2022-12-10T03:32:33;1.00;;;0.33;;
43182;SDS011;28802;38.578;-0.066;2022-12-10T03:34:59;0.93;;;0.33;;
43182;SDS011;28802;38.578;-0.066;2022-12-10T03:37:26;2.20;;;0.53;;
43182;SDS011;28802;38.578;-0.066;2022-12-10T03:40:00;1.20;;;0.40;;
43182;SDS011;28802;38.578;-0.066;2022-12-10T03:42:27;1.90;;;0.53;;
43182;SDS011;28802;38.578;-0.066;2022-12-10T03:44:53;2.40;;;0.50;;
43182;SDS011;28802;38.578;-0.066;2022-12-10T03:47:19;1.00;;;0.30;;
43182;SDS011;28802;38.578;-0.066;2022-12-10T03:49:46;1.73;;;0.30;;
43182;SDS011;28802;38.578;-0.066;2022-12-10T03:52:12;2.20;;;0.30;;
43182;SDS011;28802;38.578;-0.066;2022-12-10T03:54:38;2.17;;;0.50;;
43182;SDS011;28802;38.578;-0.066;2022-12-10T03:57:04;7.03;;;0.40;;
43182;SDS011;28802;38.578;-0.066;2022-12-10T03:59:29;1.77;;;0.33;;
43182;SDS011;28802;38.578;-0.066;2022-12-10T04:01:56;2.10;;;0.50;;
43182;SDS011;28802;38.578;-0.066;2022-12-10T04:04:22;9.67;;;0.70;;
43182;SDS011;28802;38.578;-0.066;2022-12-10T04:06:48;3.67;;;0.60;;
43182;SDS011;28802;38.578;-0.066;2022-12-10T04:09:14;1.73;;;0.30;;
43182;SDS011;28802;38.578;-0.066;2022-12-10T04:11:41;2.10;;;0.30;;
43182;SDS011;28802;38.578;-0.066;2022-12-10T04:14:09;1.13;;;0.20;;
43182;SDS011;28802;38.578;-0.066;2022-12-10T04:16:54;3.40;;;0.40;;
43182;SDS011;28802;38.578;-0.066;2022-12-10T04:19:20;1.53;;;0.40;;
43182;SDS011;28802;38.578;-0.066;2022-12-10T04:21:47;1.27;;;0.30;;
43182;SDS011;28802;38.578;-0.066;2022-12-10T04:24:32;2.00;;;0.50;;
43182;SDS011;28802;38.578;-0.066;2022-12-10T04:27:20;1.30;;;0.40;;
43182;SDS011;28802;38.578;-0.066;2022-12-10T04:29:48;2.17;;;0.40;;
43182;SDS011;28802;38.578;-0.066;2022-12-10T04:32:15;2.20;;;0.37;;
43182;SDS011;28802;38.578;-0.066;2022-12-10T04:34:42;1.73;;;0.40;;
43182;SDS011;28802;38.578;-0.066;2022-12-10T04:37:08;1.40;;;0.70;;
43182;SDS011;28802;38.578;-0.066;2022-12-10T04:39:36;2.47;;;0.60;;
43182;SDS011;28802;38.578;-0.066;2022-12-10T04:42:02;1.17;;;0.30;;
43182;SDS011;28802;38.578;-0.066;2022-12-10T04:44:29;1.90;;;0.33;;
43182;SDS011;28802;38.578;-0.066;2022-12-10T04:46:55;5.43;;;0.20;;
43182;SDS011;28802;38.578;-0.066;2022-12-10T04:49:21;1.03;;;0.30;;
43182;SDS011;28802;38.578;-0.066;2022-12-10T04:51:48;1.00;;;0.40;;
43182;SDS011;28802;38.578;-0.066;2022-12-10T04:54:15;1.10;;;0.30;;
43182;SDS011;28802;38.578;-0.066;2022-12-10T04:56:41;0.90;;;0.40;;
43182;SDS011;28802;38.578;-0.066;2022-12-10T04:59:10;0.80;;;0.20;;
43182;SDS011;28802;38.578;-0.066;2022-12-10T05:01:47;0.70;;;0.20;;
43182;SDS011;28802;38.578;-0.066;2022-12-10T05:04:14;0.87;;;0.30;;
43182;SDS011;28802;38.578;-0.066;2022-12-10T05:06:42;1.67;;;0.30;;
43182;SDS011;28802;38.578;-0.066;2022-12-10T05:09:10;2.60;;;0.20;;
43182;SDS011;28802;38.578;-0.066;2022-12-10T05:11:36;1.70;;;0.50;;
43182;SDS011;28802;38.578;-0.066;2022-12-10T05:14:03;2.60;;;0.30;;
43182;SDS011;28802;38.578;-0.066;2022-12-10T05:16:29;2.30;;;0.30;;
43182;SDS011;28802;38.578;-0.066;2022-12-10T05:18:57;6.10;;;0.50;;
43182;SDS011;28802;38.578;-0.066;2022-12-10T05:21:24;2.50;;;0.20;;
43182;SDS011;28802;38.578;-0.066;2022-12-10T05:24:14;1.43;;;0.30;;
43182;SDS011;28802;38.578;-0.066;2022-12-10T05:26:41;2.50;;;0.20;;
43182;SDS011;28802;38.578;-0.066;2022-12-10T05:29:07;0.80;;;0.20;;
43182;SDS011;28802;38.578;-0.066;2022-12-10T05:31:33;1.10;;;0.40;;
43182;SDS011;28802;38.578;-0.066;2022-12-10T05:33:59;0.70;;;0.10;;
43182;SDS011;28802;38.578;-0.066;2022-12-10T05:36:27;0.90;;;0.20;;
43182;SDS011;28802;38.578;-0.066;2022-12-10T05:38:55;0.80;;;0.20;;
43182;SDS011;28802;38.578;-0.066;2022-12-10T05:41:25;0.80;;;0.20;;
43182;SDS011;28802;38.578;-0.066;2022-12-10T05:43:53;1.37;;;0.30;;
43182;SDS011;28802;38.578;-0.066;2022-12-10T05:46:21;0.80;;;0.20;;
43182;SDS011;28802;38.578;-0.066;2022-12-10T05:48:48;0.80;;;0.20;;
43182;SDS011;28802;38.578;-0.066;2022-12-10T05:51:19;0.80;;;0.20;;
43182;SDS011;28802;38.578;-0.066;2022-12-10T05:53:55;0.93;;;0.20;;
43182;SDS011;28802;38.578;-0.066;2022-12-10T05:56:22;1.53;;;0.53;;
43182;SDS011;28802;38.578;-0.066;2022-12-10T05:58:54;2.70;;;0.30;;
43182;SDS011;28802;38.578;-0.066;2022-12-10T06:01:24;0.80;;;0.20;;
43182;SDS011;28802;38.578;-0.066;2022-12-10T06:03:51;0.80;;;0.30;;
43182;SDS011;28802;38.578;-0.066;2022-12-10T06:06:21;0.80;;;0.20;;
43182;SDS011;28802;38.578;-0.066;2022-12-10T06:08:49;0.90;;;0.30;;
43182;SDS011;28802;38.578;-0.066;2022-12-10T06:11:15;1.20;;;0.33;;
43182;SDS011;28802;38.578;-0.066;2022-12-10T06:13:41;1.27;;;0.30;;
43182;SDS011;28802;38.578;-0.066;2022-12-10T06:16:08;0.80;;;0.20;;
43182;SDS011;28802;38.578;-0.066;2022-12-10T06:18:36;0.90;;;0.20;;
43182;SDS011;28802;38.578;-0.066;2022-12-10T06:21:06;0.87;;;0.30;;
43182;SDS011;28802;38.578;-0.066;2022-12-10T06:23:34;0.70;;;0.20;;
43182;SDS011;28802;38.578;-0.066;2022-12-10T06:26:08;3.03;;;0.20;;
43182;SDS011;28802;38.578;-0.066;2022-12-10T06:28:36;0.70;;;0.20;;
43182;SDS011;28802;38.578;-0.066;2022-12-10T06:31:03;1.20;;;0.23;;
43182;SDS011;28802;38.578;-0.066;2022-12-10T06:33:29;0.77;;;0.20;;
43182;SDS011;28802;38.578;-0.066;2022-12-10T06:35:55;0.80;;;0.20;;
43182;SDS011;28802;38.578;-0.066;2022-12-10T06:38:21;0.80;;;0.20;;
43182;SDS011;28802;38.578;-0.066;2022-12-10T06:40:47;0.80;;;0.20;;
43182;SDS011;28802;38.578;-0.066;2022-12-10T06:43:13;0.80;;;0.20;;
43182;SDS011;28802;38.578;-0.066;2022-12-10T06:45:40;1.20;;;0.23;;
43182;SDS011;28802;38.578;-0.066;2022-12-10T06:48:07;1.20;;;0.20;;
43182;SDS011;28802;38.578;-0.066;2022-12-10T06:50:34;0.80;;;0.20;;
43182;SDS011;28802;38.578;-0.066;2022-12-10T06:53:00;1.93;;;0.30;;
43182;SDS011;28802;38.578;-0.066;2022-12-10T06:55:28;1.10;;;0.20;;
43182;SDS011;28802;38.578;-0.066;2022-12-10T06:57:54;0.90;;;0.27;;
43182;SDS011;28802;38.578;-0.066;2022-12-10T07:00:20;0.90;;;0.20;;
43182;SDS011;28802;38.578;-0.066;2022-12-10T07:02:47;3.30;;;0.20;;
43182;SDS011;28802;38.578;-0.066;2022-12-10T07:05:13;0.80;;;0.20;;
43182;SDS011;28802;38.578;-0.066;2022-12-10T07:07:40;1.20;;;0.30;;
43182;SDS011;28802;38.578;-0.066;2022-12-10T07:10:06;0.80;;;0.20;;
43182;SDS011;28802;38.578;-0.066;2022-12-10T07:12:32;0.80;;;0.20;;
43182;SDS011;28802;38.578;-0.066;2022-12-10T07:14:58;1.47;;;0.30;;
43182;SDS011;28802;38.578;-0.066;2022-12-10T07:17:24;3.50;;;0.43;;
43182;SDS011;28802;38.578;-0.066;2022-12-10T07:19:50;1.60;;;0.40;;
43182;SDS011;28802;38.578;-0.066;2022-12-10T07:22:16;0.80;;;0.20;;
43182;SDS011;28802;38.578;-0.066;2022-12-10T07:24:42;1.83;;;0.30;;
43182;SDS011;28802;38.578;-0.066;2022-12-10T07:27:08;0.87;;;0.20;;
43182;SDS011;28802;38.578;-0.066;2022-12-10T07:29:34;0.90;;;0.20;;
43182;SDS011;28802;38.578;-0.066;2022-12-10T07:32:01;0.87;;;0.23;;
43182;SDS011;28802;38.578;-0.066;2022-12-10T07:34:27;1.33;;;0.47;;
43182;SDS011;28802;38.578;-0.066;2022-12-10T07:36:53;1.23;;;0.30;;
43182;SDS011;28802;38.578;-0.066;2022-12-10T07:39:20;0.90;;;0.20;;
43182;SDS011;28802;38.578;-0.066;2022-12-10T07:41:50;1.13;;;0.40;;
43182;SDS011;28802;38.578;-0.066;2022-12-10T07:44:18;4.80;;;0.53;;
43182;SDS011;28802;38.578;-0.066;2022-12-10T07:46:46;6.90;;;0.57;;
43182;SDS011;28802;38.578;-0.066;2022-12-10T07:49:17;1.87;;;0.50;;
43182;SDS011;28802;38.578;-0.066;2022-12-10T07:51:47;1.50;;;0.50;;
43182;SDS011;28802;38.578;-0.066;2022-12-10T07:54:14;13.17;;;0.80;;
43182;SDS011;28802;38.578;-0.066;2022-12-10T07:56:40;7.60;;;1.20;;
43182;SDS011;28802;38.578;-0.066;2022-12-10T07:59:06;4.40;;;0.50;;
43182;SDS011;28802;38.578;-0.066;2022-12-10T08:01:33;3.83;;;0.50;;
43182;SDS011;28802;38.578;-0.066;2022-12-10T08:04:01;4.57;;;0.70;;
43182;SDS011;28802;38.578;-0.066;2022-12-10T08:06:27;4.20;;;0.80;;
43182;SDS011;28802;38.578;-0.066;2022-12-10T08:08:54;3.30;;;0.50;;
43182;SDS011;28802;38.578;-0.066;2022-12-10T08:11:21;3.30;;;0.30;;
43182;SDS011;28802;38.578;-0.066;2022-12-10T08:13:47;1.40;;;0.30;;
43182;SDS011;28802;38.578;-0.066;2022-12-10T08:16:15;4.53;;;1.00;;
43182;SDS011;28802;38.578;-0.066;2022-12-10T08:18:44;6.93;;;1.40;;
43182;SDS011;28802;38.578;-0.066;2022-12-10T08:21:14;2.13;;;0.50;;
43182;SDS011;28802;38.578;-0.066;2022-12-10T08:23:42;3.37;;;0.53;;
43182;SDS011;28802;38.578;-0.066;2022-12-10T08:26:10;2.43;;;0.70;;
43182;SDS011;28802;38.578;-0.066;2022-12-10T08:28:38;2.33;;;1.00;;
43182;SDS011;28802;38.578;-0.066;2022-12-10T08:31:04;2.93;;;0.70;;
43182;SDS011;28802;38.578;-0.066;2022-12-10T08:33:35;8.03;;;1.50;;
43182;SDS011;28802;38.578;-0.066;2022-12-10T08:36:02;2.23;;;0.70;;
43182;SDS011;28802;38.578;-0.066;2022-12-10T08:38:30;1.90;;;0.60;;
43182;SDS011;28802;38.578;-0.066;2022-12-10T08:40:56;8.00;;;2.33;;
43182;SDS011;28802;38.578;-0.066;2022-12-10T08:43:23;4.77;;;1.30;;
43182;SDS011;28802;38.578;-0.066;2022-12-10T08:45:49;4.87;;;1.53;;
43182;SDS011;28802;38.578;-0.066;2022-12-10T08:48:15;4.80;;;2.13;;
43182;SDS011;28802;38.578;-0.066;2022-12-10T08:50:41;3.60;;;1.63;;
43182;SDS011;28802;38.578;-0.066;2022-12-10T08:53:07;5.47;;;3.07;;
43182;SDS011;28802;38.578;-0.066;2022-12-10T08:55:33;5.40;;;2.70;;
43182;SDS011;28802;38.578;-0.066;2022-12-10T08:58:03;6.60;;;2.83;;
43182;SDS011;28802;38.578;-0.066;2022-12-10T09:00:28;8.73;;;3.40;;
43182;SDS011;28802;38.578;-0.066;2022-12-10T09:02:55;11.70;;;3.50;;
43182;SDS011;28802;38.578;-0.066;2022-12-10T09:05:21;8.10;;;4.23;;
43182;SDS011;28802;38.578;-0.066;2022-12-10T09:07:47;10.40;;;4.70;;
43182;SDS011;28802;38.578;-0.066;2022-12-10T09:10:13;10.57;;;4.60;;
43182;SDS011;28802;38.578;-0.066;2022-12-10T09:12:39;8.10;;;3.40;;
43182;SDS011;28802;38.578;-0.066;2022-12-10T09:15:05;3.80;;;1.60;;
43182;SDS011;28802;38.578;-0.066;2022-12-10T09:17:34;6.50;;;2.97;;
43182;SDS011;28802;38.578;-0.066;2022-12-10T09:20:00;21.43;;;9.43;;
43182;SDS011;28802;38.578;-0.066;2022-12-10T09:22:26;24.37;;;8.53;;
43182;SDS011;28802;38.578;-0.066;2022-12-10T09:24:53;18.87;;;8.70;;
43182;SDS011;28802;38.578;-0.066;2022-12-10T09:27:19;19.80;;;8.80;;
43182;SDS011;28802;38.578;-0.066;2022-12-10T09:29:47;23.73;;;9.90;;
43182;SDS011;28802;38.578;-0.066;2022-12-10T09:32:13;29.53;;;10.93;;
43182;SDS011;28802;38.578;-0.066;2022-12-10T09:34:39;32.37;;;11.80;;
43182;SDS011;28802;38.578;-0.066;2022-12-10T09:37:05;21.47;;;10.70;;
43182;SDS011;28802;38.578;-0.066;2022-12-10T09:39:31;26.23;;;12.37;;
43182;SDS011;28802;38.578;-0.066;2022-12-10T09:47:36;28.23;;;14.93;;
43182;SDS011;28802;38.578;-0.066;2022-12-10T09:50:19;11.90;;;6.50;;
43182;SDS011;28802;38.578;-0.066;2022-12-10T09:52:54;18.83;;;8.60;;
43182;SDS011;28802;38.578;-0.066;2022-12-10T09:55:28;20.40;;;9.30;;
43182;SDS011;28802;38.578;-0.066;2022-12-10T09:58:01;15.60;;;7.00;;
43182;SDS011;28802;38.578;-0.066;2022-12-10T10:00:35;16.67;;;8.47;;
43182;SDS011;28802;38.578;-0.066;2022-12-10T10:03:03;12.50;;;6.83;;
43182;SDS011;28802;38.578;-0.066;2022-12-10T10:05:41;15.27;;;7.93;;
43182;SDS011;28802;38.578;-0.066;2022-12-10T10:08:35;14.93;;;7.23;;
43182;SDS011;28802;38.578;-0.066;2022-12-10T10:11:05;11.50;;;5.20;;
43182;SDS011;28802;38.578;-0.066;2022-12-10T10:13:38;10.43;;;4.83;;
43182;SDS011;28802;38.578;-0.066;2022-12-10T10:21:42;5.17;;;2.73;;
43182;SDS011;28802;38.578;-0.066;2022-12-10T10:24:20;6.50;;;2.33;;
43182;SDS011;28802;38.578;-0.066;2022-12-10T10:27:01;3.87;;;1.50;;
43182;SDS011;28802;38.578;-0.066;2022-12-10T10:29:55;5.73;;;1.37;;
43182;SDS011;28802;38.578;-0.066;2022-12-10T10:32:27;1.57;;;0.60;;
43182;SDS011;28802;38.578;-0.066;2022-12-10T10:35:00;5.33;;;1.17;;
43182;SDS011;28802;38.578;-0.066;2022-12-10T10:37:27;2.70;;;0.90;;
43182;SDS011;28802;38.578;-0.066;2022-12-10T10:40:05;2.13;;;0.83;;
43182;SDS011;28802;38.578;-0.066;2022-12-10T10:45:30;1.67;;;0.30;;
43182;SDS011;28802;38.578;-0.066;2022-12-10T10:48:32;1.00;;;0.30;;
43182;SDS011;28802;38.578;-0.066;2022-12-10T10:51:06;3.83;;;0.60;;
43182;SDS011;28802;38.578;-0.066;2022-12-10T10:56:11;2.50;;;0.40;;
43182;SDS011;28802;38.578;-0.066;2022-12-10T10:59:07;2.73;;;0.50;;
43182;SDS011;28802;38.578;-0.066;2022-12-10T11:02:35;5.87;;;0.30;;
43182;SDS011;28802;38.578;-0.066;2022-12-10T11:04:47;2.03;;;0.60;;
43182;SDS011;28802;38.578;-0.066;2022-12-10T11:07:22;1.63;;;0.30;;
43182;SDS011;28802;38.578;-0.066;2022-12-10T11:09:50;2.50;;;0.60;;
43182;SDS011;28802;38.578;-0.066;2022-12-10T11:12:23;4.40;;;0.70;;
43182;SDS011;28802;38.578;-0.066;2022-12-10T11:14:59;1.50;;;0.30;;
43182;SDS011;28802;38.578;-0.066;2022-12-10T11:17:26;4.47;;;2.07;;
43182;SDS011;28802;38.578;-0.066;2022-12-10T11:22:51;3.57;;;0.50;;
43182;SDS011;28802;38.578;-0.066;2022-12-10T11:25:19;1.27;;;0.30;;
43182;SDS011;28802;38.578;-0.066;2022-12-10T11:30:32;3.77;;;0.40;;
43182;SDS011;28802;38.578;-0.066;2022-12-10T11:33:33;3.67;;;0.83;;
43182;SDS011;28802;38.578;-0.066;2022-12-10T11:36:21;3.80;;;0.90;;
43182;SDS011;28802;38.578;-0.066;2022-12-10T11:47:06;4.03;;;1.03;;
43182;SDS011;28802;38.578;-0.066;2022-12-10T11:49:45;10.23;;;3.07;;
43182;SDS011;28802;38.578;-0.066;2022-12-10T11:52:45;4.50;;;0.53;;
43182;SDS011;28802;38.578;-0.066;2022-12-10T11:58:14;3.53;;;1.10;;
43182;SDS011;28802;38.578;-0.066;2022-12-10T12:00:49;5.57;;;1.47;;
43182;SDS011;28802;38.578;-0.066;2022-12-10T12:03:55;1.73;;;0.43;;
43182;SDS011;28802;38.578;-0.066;2022-12-10T12:11:57;6.43;;;2.60;;
43182;SDS011;28802;38.578;-0.066;2022-12-10T12:14:39;3.57;;;1.03;;
43182;SDS011;28802;38.578;-0.066;2022-12-10T12:17:16;20.17;;;4.20;;
43182;SDS011;28802;38.578;-0.066;2022-12-10T12:20:16;7.20;;;0.57;;
43182;SDS011;28802;38.578;-0.066;2022-12-10T12:22:54;3.83;;;0.60;;
43182;SDS011;28802;38.578;-0.066;2022-12-10T12:25:44;17.17;;;3.07;;
43182;SDS011;28802;38.578;-0.066;2022-12-10T12:31:04;4.77;;;0.70;;
43182;SDS011;28802;38.578;-0.066;2022-12-10T12:36:35;4.50;;;0.43;;
43182;SDS011;28802;38.578;-0.066;2022-12-10T12:39:14;3.47;;;0.50;;
43182;SDS011;28802;38.578;-0.066;2022-12-10T12:42:20;9.33;;;3.80;;
43182;SDS011;28802;38.578;-0.066;2022-12-10T12:45:03;6.73;;;1.50;;
43182;SDS011;28802;38.578;-0.066;2022-12-10T12:47:34;10.17;;;3.30;;
43182;SDS011;28802;38.578;-0.066;2022-12-10T12:50:24;1.30;;;0.50;;
43182;SDS011;28802;38.578;-0.066;2022-12-10T12:53:06;2.83;;;0.63;;
43182;SDS011;28802;38.578;-0.066;2022-12-10T12:58:15;2.03;;;0.50;;
43182;SDS011;28802;38.578;-0.066;2022-12-10T13:00:47;2.57;;;0.90;;
43182;SDS011;28802;38.578;-0.066;2022-12-10T13:05:54;5.60;;;1.93;;
43182;SDS011;28802;38.578;-0.066;2022-12-10T13:15:49;2.50;;;0.63;;
43182;SDS011;28802;38.578;-0.066;2022-12-10T13:20:50;2.93;;;1.20;;
43182;SDS011;28802;38.578;-0.066;2022-12-10T13:24:20;34.20;;;8.57;;
43182;SDS011;28802;38.578;-0.066;2022-12-10T13:26:40;5.40;;;0.60;;
43182;SDS011;28802;38.578;-0.066;2022-12-10T13:29:26;7.90;;;1.83;;
43182;SDS011;28802;38.578;-0.066;2022-12-10T13:32:42;14.27;;;6.67;;
43182;SDS011;28802;38.578;-0.066;2022-12-10T13:34:41;11.23;;;3.67;;
43182;SDS011;28802;38.578;-0.066;2022-12-10T13:39:45;5.17;;;2.03;;
43182;SDS011;28802;38.578;-0.066;2022-12-10T13:42:33;2.83;;;1.17;;
43182;SDS011;28802;38.578;-0.066;2022-12-10T13:47:51;15.07;;;5.73;;
43182;SDS011;28802;38.578;-0.066;2022-12-10T13:50:18;8.00;;;3.50;;
43182;SDS011;28802;38.578;-0.066;2022-12-10T13:53:02;9.80;;;2.53;;
43182;SDS011;28802;38.578;-0.066;2022-12-10T13:58:38;11.43;;;3.90;;
43182;SDS011;28802;38.578;-0.066;2022-12-10T14:03:55;3.70;;;1.77;;
43182;SDS011;28802;38.578;-0.066;2022-12-10T14:06:42;22.10;;;6.10;;
43182;SDS011;28802;38.578;-0.066;2022-12-10T14:09:19;7.17;;;2.10;;
43182;SDS011;28802;38.578;-0.066;2022-12-10T14:12:01;64.80;;;23.70;;
43182;SDS011;28802;38.578;-0.066;2022-12-10T14:14:30;17.20;;;5.43;;
43182;SDS011;28802;38.578;-0.066;2022-12-10T14:16:59;9.30;;;3.30;;
43182;SDS011;28802;38.578;-0.066;2022-12-10T14:19:30;12.40;;;5.30;;
43182;SDS011;28802;38.578;-0.066;2022-12-10T14:21:58;5.50;;;1.23;;
43182;SDS011;28802;38.578;-0.066;2022-12-10T14:24:35;3.57;;;1.57;;
43182;SDS011;28802;38.578;-0.066;2022-12-10T14:27:13;13.67;;;2.17;;
43182;SDS011;28802;38.578;-0.066;2022-12-10T14:29:48;76.63;;;14.60;;
43182;SDS011;28802;38.578;-0.066;2022-12-10T14:32:17;7.00;;;3.03;;
43182;SDS011;28802;38.578;-0.066;2022-12-10T14:34:54;15.63;;;5.87;;
43182;SDS011;28802;38.578;-0.066;2022-12-10T14:37:23;9.97;;;2.70;;
43182;SDS011;28802;38.578;-0.066;2022-12-10T14:39:52;15.27;;;4.40;;
43182;SDS011;28802;38.578;-0.066;2022-12-10T14:42:18;4.70;;;1.57;;
43182;SDS011;28802;38.578;-0.066;2022-12-10T14:44:44;5.00;;;1.40;;
43182;SDS011;28802;38.578;-0.066;2022-12-10T14:47:18;4.50;;;1.87;;
43182;SDS011;28802;38.578;-0.066;2022-12-10T14:49:46;2.77;;;0.63;;
43182;SDS011;28802;38.578;-0.066;2022-12-10T14:52:14;3.67;;;1.33;;
43182;SDS011;28802;38.578;-0.066;2022-12-10T14:54:45;5.00;;;2.30;;
43182;SDS011;28802;38.578;-0.066;2022-12-10T14:57:18;3.10;;;1.13;;
43182;SDS011;28802;38.578;-0.066;2022-12-10T15:02:29;7.67;;;1.93;;
43182;SDS011;28802;38.578;-0.066;2022-12-10T15:04:58;28.33;;;11.03;;
43182;SDS011;28802;38.578;-0.066;2022-12-10T15:07:26;5.97;;;1.83;;
43182;SDS011;28802;38.578;-0.066;2022-12-10T15:09:57;3.33;;;1.10;;
43182;SDS011;28802;38.578;-0.066;2022-12-10T15:14:56;11.10;;;3.73;;
43182;SDS011;28802;38.578;-0.066;2022-12-10T15:17:37;4.80;;;2.00;;
43182;SDS011;28802;38.578;-0.066;2022-12-10T15:20:20;2.37;;;0.60;;
43182;SDS011;28802;38.578;-0.066;2022-12-10T15:22:49;4.10;;;1.30;;
43182;SDS011;28802;38.578;-0.066;2022-12-10T15:25:27;3.40;;;1.00;;
43182;SDS011;28802;38.578;-0.066;2022-12-10T15:27:55;5.97;;;2.23;;
43182;SDS011;28802;38.578;-0.066;2022-12-10T15:30:33;4.70;;;1.00;;
43182;SDS011;28802;38.578;-0.066;2022-12-10T15:33:02;1.50;;;0.50;;
43182;SDS011;28802;38.578;-0.066;2022-12-10T15:35:44;2.00;;;1.00;;
43182;SDS011;28802;38.578;-0.066;2022-12-10T15:38:12;2.13;;;0.80;;
43182;SDS011;28802;38.578;-0.066;2022-12-10T15:40:38;2.13;;;0.73;;
43182;SDS011;28802;38.578;-0.066;2022-12-10T15:43:27;3.03;;;0.93;;
43182;SDS011;28802;38.578;-0.066;2022-12-10T15:45:54;3.00;;;0.63;;
43182;SDS011;28802;38.578;-0.066;2022-12-10T15:48:21;5.20;;;1.63;;
43182;SDS011;28802;38.578;-0.066;2022-12-10T15:50:50;3.13;;;0.83;;
43182;SDS011;28802;38.578;-0.066;2022-12-10T15:53:21;2.97;;;0.60;;
43182;SDS011;28802;38.578;-0.066;2022-12-10T15:55:53;1.60;;;0.63;;
43182;SDS011;28802;38.578;-0.066;2022-12-10T15:58:18;2.43;;;1.00;;
43182;SDS011;28802;38.578;-0.066;2022-12-10T16:00:44;1.50;;;0.40;;
43182;SDS011;28802;38.578;-0.066;2022-12-10T16:03:12;3.33;;;0.70;;
43182;SDS011;28802;38.578;-0.066;2022-12-10T16:05:41;4.03;;;1.37;;
43182;SDS011;28802;38.578;-0.066;2022-12-10T16:10:47;8.83;;;4.70;;
43182;SDS011;28802;38.578;-0.066;2022-12-10T16:13:16;1.50;;;0.40;;
43182;SDS011;28802;38.578;-0.066;2022-12-10T16:15:50;4.50;;;0.97;;
43182;SDS011;28802;38.578;-0.066;2022-12-10T16:18:19;4.80;;;0.40;;
43182;SDS011;28802;38.578;-0.066;2022-12-10T16:20:45;2.47;;;1.03;;
43182;SDS011;28802;38.578;-0.066;2022-12-10T16:23:11;1.37;;;0.37;;
43182;SDS011;28802;38.578;-0.066;2022-12-10T16:25:39;3.50;;;1.30;;
43182;SDS011;28802;38.578;-0.066;2022-12-10T16:28:16;2.40;;;0.87;;
43182;SDS011;28802;38.578;-0.066;2022-12-10T16:30:47;2.10;;;0.70;;
43182;SDS011;28802;38.578;-0.066;2022-12-10T16:33:15;2.00;;;0.70;;
43182;SDS011;28802;38.578;-0.066;2022-12-10T16:35:43;3.53;;;1.50;;
43182;SDS011;28802;38.578;-0.066;2022-12-10T16:38:09;2.40;;;1.23;;
43182;SDS011;28802;38.578;-0.066;2022-12-10T16:40:36;8.73;;;1.07;;